Terminal Aerodrome Forecast
Issued by NWS

Home | Current Version | Previous Version | Text Only | Print | Product List | Glossary On
Versions: 1 2 3 4 5 6 7 8 9 10 11 12 13 14
042
FTUS42 TJSJ 262324
TAFJSJ
TAF
TJSJ 262324Z 2700/2724 09011KT P6SM FEW025 SCT060
     FM271300 08012KT P6SM FEW030 SCT120
     FM272300 09010KT P6SM FEW022=

USA.gov is the U.S. government's official web portal to all federal, state and local government web resources and services.